createdAt,value
2023-01-04T00:01:23.098Z,78.12
2023-01-04T00:03:50.064Z,77.73
2023-01-04T00:06:18.220Z,77.70
2023-01-04T00:08:45.004Z,77.59
2023-01-04T00:11:23.155Z,77.44
2023-01-04T00:13:53.485Z,77.58
2023-01-04T00:16:24.344Z,77.36
2023-01-04T00:18:53.580Z,77.63
2023-01-04T00:21:27.672Z,77.38
2023-01-04T00:24:00.355Z,77.64
2023-01-04T00:26:32.864Z,77.71
2023-01-04T00:29:06.011Z,77.30
2023-01-04T00:31:33.726Z,77.41
2023-01-04T00:34:03.679Z,76.73
2023-01-04T00:36:31.386Z,77.13
2023-01-04T00:39:07.333Z,77.10
2023-01-04T00:44:26.755Z,76.98
2023-01-04T00:46:54.007Z,77.03
2023-01-04T00:49:20.913Z,76.62
2023-01-04T00:51:47.744Z,76.48
2023-01-04T00:54:16.149Z,77.49
2023-01-04T00:56:43.188Z,77.60
2023-01-04T00:59:13.042Z,76.87
2023-01-04T01:01:41.027Z,77.11
2023-01-04T01:04:12.070Z,76.85
2023-01-04T01:06:39.045Z,77.34
2023-01-04T01:09:06.016Z,77.59
2023-01-04T01:11:33.318Z,77.14
2023-01-04T01:14:00.180Z,77.63
2023-01-04T01:16:53.235Z,78.04
2023-01-04T01:19:14.759Z,78.02
2023-01-04T01:21:41.736Z,78.69
2023-01-04T01:24:17.189Z,79.11
2023-01-04T01:26:44.103Z,79.42
2023-01-04T01:29:11.053Z,79.04
2023-01-04T01:31:38.058Z,78.94
2023-01-04T01:34:40.643Z,79.00
2023-01-04T01:37:07.444Z,79.31
2023-01-04T01:39:34.227Z,79.00
2023-01-04T01:42:01.100Z,78.97
2023-01-04T01:44:43.076Z,77.95
2023-01-04T01:47:39.668Z,77.83
2023-01-04T01:51:09.707Z,78.27
2023-01-04T01:53:39.712Z,78.30
2023-01-04T01:56:09.852Z,79.01
2023-01-04T01:58:42.885Z,78.36
2023-01-04T02:01:09.879Z,78.49
2023-01-04T02:03:43.293Z,78.53
2023-01-04T02:06:19.383Z,78.41
2023-01-04T02:08:47.252Z,78.21
2023-01-04T02:11:14.171Z,78.20
2023-01-04T02:14:01.346Z,77.87
2023-01-04T02:16:46.256Z,77.92
2023-01-04T02:20:01.393Z,77.74
2023-01-04T02:23:01.389Z,78.15
2023-01-04T02:25:57.452Z,78.05
2023-01-04T02:28:58.273Z,78.03
2023-01-04T02:31:30.023Z,78.52
2023-01-04T02:34:30.407Z,78.21
2023-01-04T02:38:15.145Z,78.43
2023-01-04T02:40:59.730Z,78.16
2023-01-04T02:43:59.626Z,78.38
2023-01-04T02:46:35.478Z,78.08
2023-01-04T02:49:21.715Z,78.16
2023-01-04T02:51:48.706Z,78.33
2023-01-04T02:54:27.225Z,78.59
2023-01-04T02:57:06.286Z,78.76
2023-01-04T02:59:54.922Z,78.73
2023-01-04T03:02:55.613Z,78.52
2023-01-04T03:05:54.624Z,78.41
2023-01-04T03:08:50.923Z,78.13
2023-01-04T03:11:37.711Z,78.57
2023-01-04T03:14:31.696Z,78.26
2023-01-04T03:17:10.402Z,77.62
2023-01-04T03:19:51.787Z,78.50
2023-01-04T03:22:44.700Z,78.18
2023-01-04T03:25:33.203Z,78.65
2023-01-04T03:28:19.417Z,78.43
2023-01-04T03:31:19.394Z,78.20
2023-01-04T03:34:05.684Z,78.46
2023-01-04T03:37:05.291Z,78.50
2023-01-04T03:40:28.339Z,78.33
2023-01-04T03:43:35.370Z,77.84
2023-01-04T03:46:31.627Z,77.71
2023-01-04T03:49:08.256Z,77.55
2023-01-04T03:51:38.187Z,77.66
2023-01-04T03:54:23.809Z,78.02
2023-01-04T03:56:52.089Z,77.87
2023-01-04T03:59:18.964Z,77.94
2023-01-04T04:01:46.040Z,77.62
2023-01-04T04:04:31.510Z,77.74
2023-01-04T04:07:16.614Z,77.45
2023-01-04T04:09:43.454Z,77.42
2023-01-04T04:12:10.267Z,77.59
2023-01-04T04:14:37.169Z,77.66
2023-01-04T04:17:04.350Z,78.13
2023-01-04T04:19:31.264Z,77.75
2023-01-04T04:21:58.091Z,78.08
2023-01-04T04:24:27.177Z,78.11
2023-01-04T04:26:55.715Z,77.96
2023-01-04T04:29:24.379Z,78.23
2023-01-04T04:31:51.435Z,78.18
2023-01-04T04:34:18.422Z,78.36
2023-01-04T04:36:45.297Z,78.15
2023-01-04T04:39:12.660Z,78.25
2023-01-04T04:41:41.702Z,78.38
2023-01-04T04:44:20.292Z,78.50
2023-01-04T04:46:48.898Z,77.61
2023-01-04T04:49:17.791Z,77.98
2023-01-04T04:51:45.956Z,78.03
2023-01-04T04:54:19.692Z,77.82
2023-01-04T04:56:48.086Z,78.23
2023-01-04T04:59:15.225Z,78.29
2023-01-04T05:01:42.162Z,78.57
2023-01-04T05:04:09.541Z,78.79
2023-01-04T05:06:36.535Z,78.45
2023-01-04T05:09:03.571Z,78.79
2023-01-04T05:11:48.768Z,78.70
2023-01-04T05:14:15.680Z,79.02
2023-01-04T05:16:42.614Z,78.72
2023-01-04T05:19:09.862Z,78.73
2023-01-04T05:21:36.769Z,79.23
2023-01-04T05:24:03.900Z,79.27
2023-01-04T05:26:30.694Z,79.56
2023-01-04T05:28:57.562Z,79.55
2023-01-04T05:31:26.021Z,79.61
2023-01-04T05:33:52.928Z,79.48
2023-01-04T05:36:19.742Z,79.03
2023-01-04T05:38:46.616Z,79.20
2023-01-04T05:41:31.744Z,79.32
2023-01-04T05:43:58.588Z,79.32
2023-01-04T05:46:25.493Z,79.73
2023-01-04T05:48:52.340Z,79.30
2023-01-04T05:51:19.184Z,79.24
2023-01-04T05:53:46.010Z,79.50
2023-01-04T05:56:12.808Z,79.22
2023-01-04T05:58:39.635Z,79.27
2023-01-04T06:01:07.767Z,79.24
2023-01-04T06:03:35.056Z,79.30
2023-01-04T06:06:02.165Z,79.09
2023-01-04T06:08:29.045Z,78.81
2023-01-04T06:10:55.858Z,78.83
2023-01-04T06:13:22.680Z,78.77
2023-01-04T06:15:49.491Z,79.18
2023-01-04T06:18:16.337Z,79.21
2023-01-04T06:20:43.807Z,79.02
2023-01-04T06:23:11.004Z,79.19
2023-01-04T06:25:38.407Z,78.87
2023-01-04T06:28:05.262Z,78.74
2023-01-04T06:30:32.465Z,78.53
2023-01-04T06:32:59.313Z,78.20
2023-01-04T06:35:26.313Z,78.55
2023-01-04T06:37:53.157Z,78.55
2023-01-04T06:40:19.939Z,78.06
2023-01-04T06:42:46.804Z,78.07
2023-01-04T06:45:15.008Z,77.87
2023-01-04T06:47:42.275Z,78.49
2023-01-04T06:50:09.943Z,78.85
2023-01-04T06:52:37.010Z,79.02
2023-01-04T06:55:04.807Z,78.84
2023-01-04T06:57:32.250Z,78.63
2023-01-04T06:59:59.113Z,78.44
2023-01-04T07:02:26.849Z,78.48
2023-01-04T07:04:54.018Z,79.28
2023-01-04T07:07:21.039Z,78.50
2023-01-04T07:09:47.877Z,79.82
2023-01-04T07:12:14.680Z,79.14
2023-01-04T07:14:41.536Z,78.57
2023-01-04T07:17:08.409Z,78.55
2023-01-04T07:19:35.317Z,78.32
2023-01-04T07:22:02.204Z,78.42
2023-01-04T07:24:30.538Z,78.83
2023-01-04T07:27:00.048Z,79.31
2023-01-04T07:29:27.798Z,79.40
2023-01-04T07:31:55.518Z,79.56
2023-01-04T07:34:25.474Z,80.07
2023-01-04T07:36:52.451Z,79.70
2023-01-04T07:39:20.151Z,79.56
2023-01-04T07:41:48.781Z,79.72
2023-01-04T07:44:18.059Z,80.40
2023-01-04T07:46:45.436Z,80.47
2023-01-04T07:49:17.748Z,79.17
2023-01-04T07:51:49.352Z,79.03
2023-01-04T07:54:17.382Z,77.57
2023-01-04T07:56:46.145Z,75.89
2023-01-04T07:59:15.648Z,72.04
2023-01-04T08:01:42.980Z,70.97
2023-01-04T08:04:12.040Z,69.27
2023-01-04T08:06:39.771Z,67.88
2023-01-04T08:09:07.589Z,65.44
2023-01-04T08:11:35.103Z,63.02
2023-01-04T08:14:02.843Z,61.99
2023-01-04T08:16:36.427Z,62.42
2023-01-04T08:19:12.828Z,60.55
2023-01-04T08:21:40.057Z,59.71
2023-01-04T08:24:07.769Z,62.18
2023-01-04T08:26:34.639Z,60.84
2023-01-04T08:29:01.755Z,65.36
2023-01-04T08:31:31.200Z,65.18
2023-01-04T08:34:01.318Z,65.06
2023-01-04T08:36:34.336Z,66.57
2023-01-04T08:39:06.381Z,67.30
2023-01-04T08:44:38.094Z,66.81
2023-01-04T08:47:05.574Z,64.66
2023-01-04T08:49:32.498Z,62.15
2023-01-04T08:51:59.388Z,61.24
2023-01-04T08:54:26.177Z,60.79
2023-01-04T08:56:53.045Z,61.97
2023-01-04T08:59:19.890Z,65.61
2023-01-04T09:01:47.006Z,64.88
2023-01-04T09:04:14.049Z,64.38
2023-01-04T09:06:41.457Z,65.33
2023-01-04T09:09:08.459Z,67.76
2023-01-04T09:11:38.068Z,63.27
2023-01-04T09:14:08.581Z,62.30
2023-01-04T09:16:37.862Z,56.83
2023-01-04T09:19:06.069Z,54.48
2023-01-04T09:21:32.928Z,54.59
2023-01-04T09:23:59.907Z,51.93
2023-01-04T09:26:26.838Z,57.34
2023-01-04T09:28:56.060Z,60.13
2023-01-04T09:31:28.875Z,63.93
2023-01-04T09:34:15.151Z,63.69
2023-01-04T09:36:44.488Z,65.54
2023-01-04T09:39:18.849Z,64.82
2023-01-04T09:42:03.121Z,65.23
2023-01-04T09:45:22.676Z,68.29
2023-01-04T09:47:58.016Z,66.71
2023-01-04T09:50:35.716Z,66.59
2023-01-04T09:53:29.798Z,66.79
2023-01-04T09:56:22.422Z,67.35
2023-01-04T09:58:50.215Z,66.45
2023-01-04T10:01:30.887Z,66.19
2023-01-04T10:04:17.912Z,63.97
2023-01-04T10:06:44.905Z,65.25
2023-01-04T10:09:14.794Z,63.88
2023-01-04T10:11:55.097Z,63.85
2023-01-04T10:14:37.520Z,64.99
2023-01-04T10:18:57.590Z,65.59
2023-01-04T10:21:26.727Z,66.26
2023-01-04T10:24:10.049Z,67.31
2023-01-04T10:26:47.300Z,66.98
2023-01-04T10:29:47.836Z,66.07
2023-01-04T10:32:43.535Z,66.22
2023-01-04T10:35:24.520Z,66.49
2023-01-04T10:38:30.917Z,66.40
2023-01-04T10:41:00.122Z,66.23
2023-01-04T10:44:11.204Z,65.99
2023-01-04T10:47:13.295Z,65.97
2023-01-04T10:50:16.946Z,66.12
2023-01-04T10:52:56.312Z,66.01
2023-01-04T10:56:23.888Z,66.84
2023-01-04T10:59:04.347Z,66.93
2023-01-04T11:01:53.591Z,66.24
2023-01-04T11:04:52.147Z,65.82
2023-01-04T11:07:26.444Z,66.67
2023-01-04T11:10:04.983Z,65.56
2023-01-04T11:12:32.041Z,65.78
2023-01-04T11:14:58.907Z,65.29
2023-01-04T11:17:26.312Z,65.16
2023-01-04T11:19:53.925Z,65.80
2023-01-04T11:22:43.009Z,64.51
2023-01-04T11:25:34.967Z,64.47
2023-01-04T11:28:21.681Z,63.92
2023-01-04T11:30:59.190Z,62.78
2023-01-04T11:33:26.451Z,62.72
2023-01-04T11:35:56.990Z,63.03
2023-01-04T11:38:27.768Z,63.62
2023-01-04T11:41:07.546Z,61.77
2023-01-04T11:43:39.529Z,60.59
2023-01-04T11:46:18.373Z,60.36
2023-01-04T11:48:47.069Z,59.39
2023-01-04T11:51:29.574Z,58.18
2023-01-04T11:54:05.620Z,57.91
2023-01-04T11:56:35.191Z,57.58
2023-01-04T11:59:08.566Z,58.65
2023-01-04T12:01:40.204Z,58.04
2023-01-04T12:04:15.530Z,57.95
2023-01-04T12:06:55.252Z,57.03
2023-01-04T12:09:22.372Z,56.76
2023-01-04T12:11:57.513Z,56.61
2023-01-04T12:14:37.266Z,56.78
2023-01-04T12:17:24.074Z,56.91
2023-01-04T12:19:54.633Z,56.48
2023-01-04T12:22:36.379Z,56.59
2023-01-04T12:25:08.351Z,57.21
2023-01-04T12:27:36.667Z,56.19
2023-01-04T12:30:08.082Z,57.36
2023-01-04T12:32:34.857Z,56.74
2023-01-04T12:35:01.685Z,56.55
2023-01-04T12:37:45.766Z,57.30
2023-01-04T12:40:46.578Z,56.29
2023-01-04T12:43:16.530Z,56.46
2023-01-04T12:45:48.479Z,55.96
2023-01-04T12:48:54.412Z,57.03
2023-01-04T12:51:34.312Z,55.75
2023-01-04T12:54:04.504Z,56.73
2023-01-04T12:57:16.215Z,56.27
2023-01-04T13:00:14.695Z,56.42
2023-01-04T13:02:52.661Z,56.25
2023-01-04T13:08:12.588Z,56.42
2023-01-04T13:10:49.885Z,57.16
2023-01-04T13:13:41.243Z,57.24
2023-01-04T13:16:19.953Z,56.85
2023-01-04T13:18:59.476Z,57.11
2023-01-04T13:21:44.842Z,57.14
2023-01-04T13:24:30.655Z,57.18
2023-01-04T13:27:06.968Z,56.89
2023-01-04T13:29:35.818Z,56.17
2023-01-04T13:32:19.611Z,55.67
2023-01-04T13:35:03.700Z,56.18
2023-01-04T13:37:48.264Z,56.58
2023-01-04T13:40:26.479Z,56.79
2023-01-04T13:43:44.315Z,55.46
2023-01-04T13:46:25.319Z,55.47
2023-01-04T13:48:59.071Z,54.83
2023-01-04T13:51:37.102Z,54.54
2023-01-04T13:54:18.169Z,53.41
2023-01-04T13:56:49.723Z,52.50
2023-01-04T13:59:21.181Z,52.50
2023-01-04T14:01:51.444Z,51.94
2023-01-04T14:04:27.356Z,52.07
2023-01-04T14:06:58.590Z,51.73
2023-01-04T14:09:32.799Z,51.79
2023-01-04T14:12:08.698Z,51.26
2023-01-04T14:14:58.338Z,50.98
2023-01-04T14:17:49.206Z,51.43
2023-01-04T14:20:15.875Z,51.01
2023-01-04T14:22:45.506Z,50.98
2023-01-04T14:25:30.822Z,50.99
2023-01-04T14:28:19.970Z,50.69
2023-01-04T14:30:53.128Z,51.48
2023-01-04T14:33:36.314Z,51.36
2023-01-04T14:36:09.264Z,51.13
2023-01-04T14:39:06.227Z,52.15
2023-01-04T14:41:40.247Z,51.56
2023-01-04T14:44:41.254Z,52.26
2023-01-04T14:47:12.356Z,52.51
2023-01-04T14:49:39.312Z,52.68
2023-01-04T14:52:17.973Z,53.64
2023-01-04T14:54:45.117Z,53.14
2023-01-04T14:57:14.445Z,53.31
2023-01-04T14:59:44.127Z,53.48
2023-01-04T15:02:11.280Z,52.97
2023-01-04T15:04:38.162Z,54.32
2023-01-04T15:07:05.154Z,54.34
2023-01-04T15:09:32.084Z,53.69
2023-01-04T15:11:59.097Z,54.49
2023-01-04T15:14:26.287Z,54.04
2023-01-04T15:16:53.284Z,54.56
2023-01-04T15:19:20.174Z,54.47
2023-01-04T15:21:47.048Z,55.30
2023-01-04T15:24:13.962Z,56.18
2023-01-04T15:26:40.922Z,56.63
2023-01-04T15:29:08.647Z,55.74
2023-01-04T15:31:39.931Z,55.55
2023-01-04T15:34:09.152Z,56.12
2023-01-04T15:36:38.624Z,55.85
2023-01-04T15:39:07.085Z,56.63
2023-01-04T15:41:52.518Z,56.21
2023-01-04T15:44:19.385Z,56.69
2023-01-04T15:46:46.485Z,56.88
2023-01-04T15:49:17.151Z,56.87
2023-01-04T15:51:45.803Z,57.92
2023-01-04T15:54:13.224Z,57.60
2023-01-04T15:56:40.110Z,57.95
2023-01-04T15:59:07.188Z,58.29
2023-01-04T16:01:34.113Z,58.33
2023-01-04T16:04:02.503Z,58.42
2023-01-04T16:06:29.440Z,58.93
2023-01-04T16:08:58.761Z,59.35
2023-01-04T16:11:25.717Z,59.58
2023-01-04T16:13:53.483Z,59.80
2023-01-04T16:16:23.403Z,59.78
2023-01-04T16:18:53.062Z,59.75
2023-01-04T16:21:24.448Z,59.65
2023-01-04T16:24:04.545Z,59.89
2023-01-04T16:26:34.078Z,59.66
2023-01-04T16:29:02.689Z,60.04
2023-01-04T16:31:37.015Z,59.70
2023-01-04T16:34:04.887Z,59.57
2023-01-04T16:36:31.953Z,59.57
2023-01-04T16:38:58.817Z,60.12
2023-01-04T16:41:25.664Z,60.05
2023-01-04T16:43:55.607Z,59.70
2023-01-04T16:46:28.823Z,60.52
2023-01-04T16:49:04.910Z,59.80
2023-01-04T16:51:34.882Z,59.44
2023-01-04T16:54:03.793Z,59.49
2023-01-04T16:56:32.215Z,59.46
2023-01-04T16:58:59.720Z,58.94
2023-01-04T17:01:42.268Z,59.06
2023-01-04T17:04:14.900Z,58.50
2023-01-04T17:06:44.830Z,59.20
2023-01-04T17:09:19.906Z,58.93
2023-01-04T17:14:44.404Z,59.13
2023-01-04T17:17:11.310Z,59.20
2023-01-04T17:19:38.385Z,59.32
2023-01-04T17:22:05.222Z,59.22
2023-01-04T17:24:32.160Z,59.51
2023-01-04T17:26:59.005Z,59.68
2023-01-04T17:29:25.881Z,59.75
2023-01-04T17:31:52.864Z,59.67
2023-01-04T17:34:23.266Z,60.58
2023-01-04T17:36:50.568Z,61.42
2023-01-04T17:39:19.312Z,61.90
2023-01-04T17:41:46.289Z,61.37
2023-01-04T17:44:13.152Z,61.81
2023-01-04T17:46:40.015Z,61.34
2023-01-04T17:49:22.278Z,61.54
2023-01-04T17:51:51.044Z,62.05
2023-01-04T17:54:18.407Z,61.50
2023-01-04T17:56:45.203Z,61.92
2023-01-04T17:59:12.560Z,63.92
2023-01-04T18:01:39.563Z,64.27
2023-01-04T18:04:06.640Z,63.11
2023-01-04T18:06:35.952Z,63.44
2023-01-04T18:09:06.410Z,63.59
2023-01-04T18:11:34.671Z,64.48
2023-01-04T18:14:04.423Z,63.65
2023-01-04T18:16:55.024Z,64.15
2023-01-04T18:19:30.096Z,64.10
2023-01-04T18:21:57.519Z,63.47
2023-01-04T18:24:36.192Z,63.51
2023-01-04T18:27:23.138Z,63.39
2023-01-04T18:29:53.242Z,64.38
2023-01-04T18:32:20.925Z,64.35
2023-01-04T18:34:48.900Z,63.66
2023-01-04T18:37:16.736Z,64.24
2023-01-04T18:39:43.872Z,63.78
2023-01-04T18:42:10.732Z,64.31
2023-01-04T18:44:43.903Z,63.78
2023-01-04T18:47:12.785Z,64.91
2023-01-04T18:49:39.695Z,63.58
2023-01-04T18:52:06.794Z,64.76
2023-01-04T18:54:33.731Z,64.58
2023-01-04T18:57:01.948Z,64.40
2023-01-04T18:59:30.156Z,64.49
2023-01-04T19:02:01.117Z,64.42
2023-01-04T19:04:31.596Z,64.84
2023-01-04T19:06:58.599Z,64.28
2023-01-04T19:09:25.452Z,64.16
2023-01-04T19:11:56.517Z,64.03
2023-01-04T19:14:23.377Z,64.79
2023-01-04T19:16:50.256Z,65.29
2023-01-04T19:19:17.178Z,64.40
2023-01-04T19:21:44.059Z,64.52
2023-01-04T19:24:11.077Z,63.85
2023-01-04T19:26:39.354Z,64.49
2023-01-04T19:29:08.446Z,64.09
2023-01-04T19:31:35.641Z,64.17
2023-01-04T19:34:03.296Z,64.43
2023-01-04T19:36:30.158Z,64.37
2023-01-04T19:38:57.931Z,64.08
2023-01-04T19:41:33.510Z,63.12
2023-01-04T19:44:07.220Z,63.11
2023-01-04T19:46:34.238Z,62.82
2023-01-04T19:49:02.163Z,63.40
2023-01-04T19:51:29.020Z,63.33
2023-01-04T19:53:56.357Z,63.25
2023-01-04T19:56:23.251Z,63.51
2023-01-04T19:58:50.475Z,63.28
2023-01-04T20:01:20.752Z,63.33
2023-01-04T20:03:48.085Z,62.40
2023-01-04T20:06:15.517Z,62.63
2023-01-04T20:08:42.845Z,62.47
2023-01-04T20:11:11.121Z,62.81
2023-01-04T20:13:38.786Z,63.09
2023-01-04T20:16:06.511Z,62.72
2023-01-04T20:18:35.430Z,62.83
2023-01-04T20:21:02.577Z,62.22
2023-01-04T20:23:29.412Z,61.87
2023-01-04T20:25:56.295Z,62.42
2023-01-04T20:28:24.979Z,61.96
2023-01-04T20:31:09.398Z,62.33
2023-01-04T20:33:36.239Z,61.97
2023-01-04T20:36:21.498Z,62.21
2023-01-04T20:38:49.654Z,63.80
2023-01-04T20:41:21.061Z,62.85
2023-01-04T20:43:49.046Z,63.45
2023-01-04T20:46:19.937Z,63.46
2023-01-04T20:48:47.496Z,62.26
2023-01-04T20:51:21.174Z,63.19
2023-01-04T20:53:48.755Z,63.38
2023-01-04T20:56:23.844Z,63.39
2023-01-04T20:58:51.724Z,63.00
2023-01-04T21:01:21.518Z,63.54
2023-01-04T21:03:48.853Z,63.73
2023-01-04T21:06:18.500Z,65.93
2023-01-04T21:08:46.618Z,67.61
2023-01-04T21:11:14.160Z,67.69
2023-01-04T21:13:41.186Z,67.31
2023-01-04T21:16:09.442Z,67.59
2023-01-04T21:18:36.970Z,68.10
2023-01-04T21:21:11.403Z,67.47
2023-01-04T21:23:38.485Z,67.64
2023-01-04T21:26:08.339Z,68.04
2023-01-04T21:28:36.205Z,68.46
2023-01-04T21:31:09.384Z,68.54
2023-01-04T21:33:36.286Z,68.97
2023-01-04T21:36:12.538Z,69.40
2023-01-04T21:38:39.445Z,68.38
2023-01-04T21:41:12.682Z,68.13
2023-01-04T21:43:40.780Z,69.12
2023-01-04T21:46:15.719Z,69.12
2023-01-04T21:48:44.490Z,69.23
2023-01-04T21:51:14.200Z,67.99
2023-01-04T21:53:42.269Z,70.04
2023-01-04T21:56:13.723Z,68.90
2023-01-04T21:58:41.571Z,68.73
2023-01-04T22:01:27.302Z,69.42
2023-01-04T22:03:57.065Z,69.17
2023-01-04T22:06:25.661Z,69.54
2023-01-04T22:08:53.272Z,68.89
2023-01-04T22:11:20.293Z,68.49
2023-01-04T22:13:48.718Z,68.27
2023-01-04T22:16:16.509Z,69.14
2023-01-04T22:18:50.667Z,69.15
2023-01-04T22:21:21.261Z,69.37
2023-01-04T22:23:48.120Z,67.71
2023-01-04T22:26:15.275Z,69.60
2023-01-04T22:28:42.184Z,68.00
2023-01-04T22:31:12.154Z,69.56
2023-01-04T22:33:40.345Z,68.97
2023-01-04T22:36:19.461Z,69.95
2023-01-04T22:38:51.315Z,69.42
2023-01-04T22:41:22.439Z,70.07
2023-01-04T22:43:59.237Z,70.32
2023-01-04T22:46:28.518Z,70.28
2023-01-04T22:48:56.035Z,70.68
2023-01-04T22:51:24.260Z,70.39
2023-01-04T22:53:55.762Z,70.82
2023-01-04T22:56:23.865Z,70.69
2023-01-04T22:58:54.553Z,72.13
2023-01-04T23:01:27.982Z,72.23
2023-01-04T23:03:55.759Z,71.21
2023-01-04T23:06:24.528Z,70.97
2023-01-04T23:09:04.555Z,71.12
2023-01-04T23:11:33.835Z,69.62
2023-01-04T23:14:03.866Z,70.65
2023-01-04T23:16:32.972Z,69.99
2023-01-04T23:19:01.922Z,69.48
2023-01-04T23:21:29.629Z,69.69
2023-01-04T23:23:56.586Z,69.31
2023-01-04T23:26:25.089Z,68.22
2023-01-04T23:28:52.540Z,67.73
2023-01-04T23:31:22.631Z,68.08
2023-01-04T23:33:54.149Z,67.80
2023-01-04T23:36:31.420Z,67.01
2023-01-04T23:39:02.151Z,67.86
2023-01-04T23:41:44.689Z,67.40
2023-01-04T23:47:00.603Z,68.02
2023-01-04T23:49:29.961Z,67.51
2023-01-04T23:51:57.171Z,67.56
2023-01-04T23:54:24.528Z,67.05
2023-01-04T23:56:51.621Z,67.65
2023-01-04T23:59:19.475Z,67.08
